Time;durP1;ratioP1;P1;durP2;ratioP2;P2;SDS_P1;SDS_P2;PMS_P1;PMS_P2;Temp;Humidity;BMP_temperature;BMP_pressure;BME280_temperature;BME280_humidity;BME280_pressure;Samples;Min_cycle;Max_cycle;Signal;HPM_P1;HPM_P2
2022/08/31 00:06:23;;;;;;;4.07;3.67;;;21.30;99.90;;;;;;5076477;28;20200;-84
2022/08/31 00:08:49;;;;;;;6.05;3.63;;;21.30;99.90;;;;;;5076021;28;20175;-82
2022/08/31 00:11:17;;;;;;;5.37;3.70;;;21.30;99.90;;;;;;5075970;28;20202;-81
2022/08/31 00:13:43;;;;;;;4.53;3.80;;;21.30;99.90;;;;;;5075821;28;20694;-79
2022/08/31 00:16:10;;;;;;;4.53;3.47;;;21.30;99.90;;;;;;5075358;28;20174;-81
2022/08/31 00:18:36;;;;;;;4.53;4.03;;;21.30;99.90;;;;;;5074921;28;20217;-81
2022/08/31 00:21:04;;;;;;;4.47;3.70;;;21.30;99.90;;;;;;5078825;28;20175;-80
2022/08/31 00:23:30;;;;;;;4.50;4.10;;;21.30;99.90;;;;;;5073365;28;20203;-83
2022/08/31 00:25:56;;;;;;;4.57;3.70;;;21.20;99.90;;;;;;5087297;28;20372;-82
2022/08/31 00:28:22;;;;;;;3.60;3.30;;;21.20;99.90;;;;;;5096516;28;20179;-84
2022/08/31 00:30:48;;;;;;;3.87;3.57;;;21.20;99.90;;;;;;5079803;28;20179;-82
2022/08/31 00:33:15;;;;;;;5.40;3.63;;;21.30;99.90;;;;;;5072827;28;20171;-81
2022/08/31 00:35:41;;;;;;;4.67;3.57;;;21.30;99.90;;;;;;5072514;28;20179;-81
2022/08/31 00:38:08;;;;;;;4.57;3.63;;;21.30;99.90;;;;;;5072565;28;20221;-83
2022/08/31 00:40:35;;;;;;;4.57;3.83;;;21.10;99.90;;;;;;5073010;28;20175;-83
2022/08/31 00:43:02;;;;;;;3.93;3.53;;;21.20;99.90;;;;;;5075240;28;20207;-81
2022/08/31 00:45:29;;;;;;;4.43;3.97;;;21.10;99.90;;;;;;5072795;28;20172;-84
2022/08/31 00:47:54;;;;;;;5.83;3.90;;;21.20;99.90;;;;;;5072522;28;20179;-82
2022/08/31 00:50:23;;;;;;;5.93;3.90;;;21.20;99.90;;;;;;5076690;28;20622;-84
2022/08/31 00:52:53;;;;;;;4.00;3.60;;;21.20;99.90;;;;;;5072131;28;20236;-83
2022/08/31 00:55:21;;;;;;;4.33;3.93;;;21.20;99.90;;;;;;5070762;28;20523;-82
2022/08/31 00:57:51;;;;;;;5.77;3.97;;;21.20;99.90;;;;;;5071708;28;20254;-81
2022/08/31 01:00:25;;;;;;;3.93;3.70;;;21.20;99.90;;;;;;5070534;28;20167;-80
2022/08/31 01:02:51;;;;;;;5.47;3.87;;;21.20;99.90;;;;;;5070454;28;20659;-81
2022/08/31 01:05:18;;;;;;;5.83;4.03;;;21.30;99.90;;;;;;5071814;28;20543;-81
2022/08/31 01:07:46;;;;;;;3.50;3.30;;;21.20;99.90;;;;;;5070411;28;20221;-81
2022/08/31 01:10:14;;;;;;;7.33;3.73;;;21.10;99.90;;;;;;5070399;28;20217;-82
2022/08/31 01:12:43;;;;;;;3.93;3.60;;;21.10;99.90;;;;;;5070337;28;20179;-84
2022/08/31 01:15:11;;;;;;;6.17;3.60;;;21.10;99.90;;;;;;5071589;28;20159;-84
2022/08/31 01:17:37;;;;;;;7.33;3.90;;;21.00;99.90;;;;;;5069109;28;20242;-81
2022/08/31 01:20:08;;;;;;;3.93;3.60;;;21.00;99.90;;;;;;5069440;28;20171;-83
2022/08/31 01:22:47;;;;;;;4.77;3.60;;;20.90;99.90;;;;;;5069929;28;20183;-83
2022/08/31 01:25:14;;;;;;;8.67;3.57;;;20.90;99.90;;;;;;5070760;28;20175;-83
2022/08/31 01:27:40;;;;;;;3.93;3.63;;;21.00;99.90;;;;;;5071008;28;20531;-82
2022/08/31 01:30:09;;;;;;;5.90;3.87;;;21.00;99.90;;;;;;5070057;28;20274;-82
2022/08/31 01:32:35;;;;;;;4.20;3.80;;;21.00;99.90;;;;;;5070979;28;20242;-81
2022/08/31 01:35:01;;;;;;;5.53;3.73;;;21.00;99.90;;;;;;5071153;28;20182;-81
2022/08/31 01:37:28;;;;;;;4.13;3.77;;;21.00;99.90;;;;;;5070863;28;20167;-82
2022/08/31 01:39:54;;;;;;;5.50;4.27;;;21.10;99.90;;;;;;5071057;28;20171;-80
2022/08/31 01:42:19;;;;;;;4.97;4.10;;;20.90;99.90;;;;;;5069503;28;20183;-82
2022/08/31 01:44:47;;;;;;;5.57;4.60;;;20.90;99.90;;;;;;5070927;28;20199;-82
2022/08/31 01:47:12;;;;;;;6.17;4.37;;;20.90;99.90;;;;;;5070515;28;20207;-82
2022/08/31 01:49:38;;;;;;;5.33;4.80;;;20.80;99.90;;;;;;5070315;28;20206;-81
2022/08/31 01:52:05;;;;;;;4.40;4.00;;;20.80;99.90;;;;;;5069179;28;20551;-82
2022/08/31 01:54:31;;;;;;;4.87;4.47;;;20.80;99.90;;;;;;5070721;28;20249;-81
2022/08/31 01:56:57;;;;;;;4.37;4.00;;;20.80;99.90;;;;;;5070834;28;20185;-83
2022/08/31 01:59:23;;;;;;;6.43;4.03;;;20.90;99.90;;;;;;5070550;28;20195;-83
2022/08/31 02:01:52;;;;;;;4.50;4.10;;;20.80;99.90;;;;;;5069538;28;20178;-82
2022/08/31 02:04:21;;;;;;;5.20;4.17;;;20.90;99.90;;;;;;5070681;28;20237;-83
2022/08/31 02:06:50;;;;;;;4.67;4.13;;;20.80;99.90;;;;;;5089291;28;20179;-83
2022/08/31 02:09:17;;;;;;;5.53;4.07;;;20.80;99.90;;;;;;5090236;28;20737;-81
2022/08/31 02:11:43;;;;;;;6.57;4.40;;;20.80;99.90;;;;;;5073601;28;20884;-80
2022/08/31 02:14:09;;;;;;;4.93;4.23;;;20.70;99.90;;;;;;5070879;28;20653;-81
2022/08/31 02:16:36;;;;;;;3.87;3.63;;;20.60;99.90;;;;;;5069864;28;20178;-82
2022/08/31 02:19:03;;;;;;;5.50;4.00;;;20.60;99.90;;;;;;5070132;28;20175;-82
2022/08/31 02:21:29;;;;;;;4.63;4.03;;;20.60;99.90;;;;;;5070538;28;20233;-82
2022/08/31 02:23:55;;;;;;;4.23;3.80;;;20.60;99.90;;;;;;5068201;28;20218;-82
2022/08/31 02:26:21;;;;;;;4.07;3.57;;;20.50;99.90;;;;;;5069271;28;20198;-81
2022/08/31 02:28:47;;;;;;;4.77;3.90;;;20.50;99.90;;;;;;5070951;28;20658;-81
2022/08/31 02:31:13;;;;;;;7.47;3.70;;;20.50;99.90;;;;;;5070416;28;20183;-80
2022/08/31 02:33:39;;;;;;;6.67;4.03;;;20.60;99.90;;;;;;5070676;28;20240;-84
2022/08/31 02:36:05;;;;;;;6.17;3.80;;;20.50;99.90;;;;;;5069769;28;20655;-84
2022/08/31 02:38:33;;;;;;;7.57;3.77;;;20.50;99.90;;;;;;5070296;28;20218;-81
2022/08/31 02:40:59;;;;;;;4.10;3.80;;;20.50;99.90;;;;;;5068322;28;20667;-81
2022/08/31 02:43:25;;;;;;;4.37;3.97;;;20.50;99.90;;;;;;5066712;28;20203;-81
2022/08/31 02:45:51;;;;;;;4.30;3.63;;;20.50;99.90;;;;;;5079478;28;20201;-79
2022/08/31 02:48:17;;;;;;;4.20;3.80;;;20.60;99.90;;;;;;5073078;28;20182;-81
2022/08/31 02:50:46;;;;;;;4.17;3.77;;;20.50;99.90;;;;;;5069708;28;20175;-80
2022/08/31 02:53:14;;;;;;;4.00;3.70;;;20.50;99.90;;;;;;5069769;28;20227;-83
2022/08/31 02:55:41;;;;;;;3.97;3.70;;;20.50;99.90;;;;;;5069864;28;20587;-81
2022/08/31 02:58:09;;;;;;;5.87;3.60;;;20.50;99.90;;;;;;5069511;28;20222;-79
2022/08/31 03:00:35;;;;;;;7.10;4.07;;;20.50;99.90;;;;;;5069497;28;20176;-81
2022/08/31 03:03:02;;;;;;;3.80;3.60;;;20.60;99.90;;;;;;5069294;28;20211;-82
2022/08/31 03:05:27;;;;;;;7.80;3.57;;;20.70;99.90;;;;;;5069730;28;20171;-82
2022/08/31 03:07:53;;;;;;;4.57;4.17;;;20.60;99.90;;;;;;5069472;28;20702;-80
2022/08/31 03:10:22;;;;;;;5.80;3.80;;;20.60;99.90;;;;;;5068274;28;20512;-81
2022/08/31 03:12:48;;;;;;;7.00;3.70;;;20.50;99.90;;;;;;5069951;28;20530;-82
2022/08/31 03:15:16;;;;;;;4.47;3.83;;;20.50;99.90;;;;;;5070478;28;20202;-81
2022/08/31 03:17:42;;;;;;;4.67;3.70;;;20.50;99.90;;;;;;5069454;28;20216;-80
2022/08/31 03:20:12;;;;;;;5.77;4.13;;;20.50;99.90;;;;;;5069255;28;20171;-81
2022/08/31 03:22:39;;;;;;;5.67;4.13;;;20.50;99.90;;;;;;5069213;28;20183;-81
2022/08/31 03:25:07;;;;;;;4.30;3.90;;;20.40;99.90;;;;;;5069273;28;20938;-82
2022/08/31 03:27:33;;;;;;;7.00;3.87;;;20.40;99.90;;;;;;5069223;28;20167;-81
2022/08/31 03:29:59;;;;;;;5.50;4.07;;;20.40;99.90;;;;;;5069331;28;20167;-82
2022/08/31 03:32:29;;;;;;;4.43;3.90;;;20.40;99.90;;;;;;5069379;28;20500;-81
2022/08/31 03:34:57;;;;;;;7.00;3.87;;;20.30;99.90;;;;;;5068078;28;20190;-81
2022/08/31 03:37:23;;;;;;;6.30;3.90;;;20.30;99.90;;;;;;5067580;28;20646;-81
2022/08/31 03:39:49;;;;;;;4.47;4.03;;;20.20;99.90;;;;;;5069792;28;20552;-81
2022/08/31 03:42:16;;;;;;;5.17;3.97;;;20.20;99.90;;;;;;5069834;28;20179;-82
2022/08/31 03:44:41;;;;;;;4.23;3.83;;;20.10;99.90;;;;;;5069876;28;20203;-82
2022/08/31 03:47:08;;;;;;;4.97;4.40;;;20.00;99.90;;;;;;5073372;28;20168;-81
2022/08/31 03:49:34;;;;;;;5.33;4.03;;;20.00;99.90;;;;;;5090617;28;20498;-81
2022/08/31 03:52:01;;;;;;;6.03;4.37;;;19.90;99.90;;;;;;5084829;28;20557;-81
2022/08/31 03:54:27;;;;;;;5.80;3.90;;;19.90;99.90;;;;;;5088000;28;20250;-81
2022/08/31 03:56:53;;;;;;;5.63;4.00;;;20.00;99.90;;;;;;5081037;28;20171;-82
2022/08/31 03:59:19;;;;;;;4.67;4.00;;;20.00;99.90;;;;;;5074537;28;20229;-82
2022/08/31 04:01:45;;;;;;;6.30;3.90;;;20.10;99.90;;;;;;5072998;28;20175;-81
2022/08/31 04:04:14;;;;;;;4.37;3.90;;;20.00;99.90;;;;;;5072424;28;20206;-82
2022/08/31 04:06:41;;;;;;;4.97;4.43;;;20.10;99.90;;;;;;5073034;28;20206;-82
2022/08/31 04:09:07;;;;;;;5.07;4.10;;;20.10;99.90;;;;;;5072526;28;20225;-82
2022/08/31 04:11:33;;;;;;;4.30;3.87;;;20.10;99.90;;;;;;5072840;28;20175;-80
2022/08/31 04:13:59;;;;;;;4.57;4.17;;;20.10;99.90;;;;;;5072749;28;20536;-82
2022/08/31 04:16:25;;;;;;;4.93;4.43;;;20.10;99.90;;;;;;5072895;28;20225;-81
2022/08/31 04:18:51;;;;;;;9.03;4.60;;;20.20;99.90;;;;;;5071925;28;20236;-81
2022/08/31 04:21:23;;;;;;;4.67;4.20;;;20.20;99.90;;;;;;5072704;28;20660;-81
2022/08/31 04:23:51;;;;;;;8.83;4.60;;;20.10;99.90;;;;;;5070555;28;20217;-82
2022/08/31 04:26:23;;;;;;;5.70;4.50;;;20.10;99.90;;;;;;5072278;28;20194;-81
2022/08/31 04:28:50;;;;;;;4.40;4.00;;;20.00;99.90;;;;;;5071985;28;20542;-81
2022/08/31 04:31:16;;;;;;;7.07;4.37;;;20.00;99.90;;;;;;5070147;28;20187;-81
2022/08/31 04:33:42;;;;;;;7.03;3.73;;;20.00;99.90;;;;;;5071077;28;20566;-81
2022/08/31 04:36:18;;;;;;;4.30;3.93;;;19.90;99.90;;;;;;5071096;28;20729;-82
2022/08/31 04:38:46;;;;;;;6.00;4.70;;;20.00;99.90;;;;;;5071100;28;20225;-81
2022/08/31 04:41:15;;;;;;;6.37;4.60;;;19.90;99.90;;;;;;5071240;28;20646;-82
2022/08/31 04:43:45;;;;;;;4.80;4.17;;;19.90;99.90;;;;;;5072226;28;20209;-81
2022/08/31 04:46:11;;;;;;;7.43;4.40;;;20.00;99.90;;;;;;5074586;28;20171;-81
2022/08/31 04:48:38;;;;;;;4.03;3.70;;;20.10;99.90;;;;;;5075175;28;20175;-80
2022/08/31 04:51:08;;;;;;;5.87;4.17;;;20.00;99.90;;;;;;5073138;28;20186;-80
2022/08/31 04:53:35;;;;;;;5.27;4.00;;;20.10;99.90;;;;;;5070637;28;20609;-82
2022/08/31 04:56:13;;;;;;;7.57;4.27;;;20.10;99.90;;;;;;5072275;28;20284;-80
2022/08/31 04:59:03;;;;;;;4.43;4.03;;;20.10;99.90;;;;;;5070449;28;20234;-81
2022/08/31 05:01:37;;;;;;;7.50;5.00;;;20.10;99.90;;;;;;5071399;28;20274;-81
2022/08/31 05:04:04;;;;;;;5.57;4.77;;;20.10;99.90;;;;;;5070573;28;20259;-83
2022/08/31 05:06:32;;;;;;;6.47;4.90;;;20.10;99.90;;;;;;5071911;28;20160;-83
2022/08/31 05:09:02;;;;;;;4.70;4.30;;;20.20;99.90;;;;;;5071797;28;20221;-82
2022/08/31 05:11:28;;;;;;;7.70;4.27;;;20.30;99.90;;;;;;5072123;28;20522;-82
2022/08/31 05:13:59;;;;;;;5.03;4.40;;;20.30;99.90;;;;;;5070520;28;20210;-81
2022/08/31 05:16:25;;;;;;;4.73;4.23;;;20.30;99.90;;;;;;5071815;28;20691;-83
2022/08/31 05:18:51;;;;;;;5.47;3.97;;;20.40;99.90;;;;;;5071937;28;20261;-82
2022/08/31 05:21:24;;;;;;;6.50;4.40;;;20.50;99.90;;;;;;5071799;28;20178;-82
2022/08/31 05:23:50;;;;;;;4.93;4.43;;;20.50;99.90;;;;;;5071453;28;20569;-82
2022/08/31 05:26:17;;;;;;;5.47;4.30;;;20.50;99.90;;;;;;5071281;28;20174;-84
2022/08/31 05:28:44;;;;;;;7.23;4.00;;;20.60;99.90;;;;;;5078932;28;20206;-81
2022/08/31 05:31:09;;;;;;;5.53;4.50;;;20.60;99.90;;;;;;5095208;28;20163;-81
2022/08/31 05:33:35;;;;;;;8.80;4.43;;;20.60;99.90;;;;;;5079624;28;20258;-84
2022/08/31 05:36:02;;;;;;;6.37;4.13;;;20.70;99.90;;;;;;5070313;28;20535;-82
2022/08/31 05:38:28;;;;;;;7.37;4.30;;;20.70;99.90;;;;;;5069796;28;20194;-84
2022/08/31 05:40:57;;;;;;;5.20;4.10;;;20.80;99.90;;;;;;5071140;28;20175;-84
2022/08/31 05:43:23;;;;;;;5.30;4.10;;;20.90;99.90;;;;;;5074121;28;20650;-83
2022/08/31 05:45:49;;;;;;;5.57;4.50;;;21.00;99.90;;;;;;5071618;28;20630;-82
2022/08/31 05:48:16;;;;;;;6.60;4.37;;;21.00;99.90;;;;;;5071024;28;20237;-81
2022/08/31 05:50:42;;;;;;;5.40;4.33;;;21.00;99.90;;;;;;5071030;28;20175;-83
2022/08/31 05:53:08;;;;;;;4.87;4.40;;;21.00;99.90;;;;;;5070889;28;20570;-83
2022/08/31 05:55:35;;;;;;;5.57;4.33;;;21.00;99.90;;;;;;5071181;28;20171;-81
2022/08/31 05:58:01;;;;;;;5.13;3.90;;;21.10;99.90;;;;;;5070794;28;20285;-82
2022/08/31 06:00:27;;;;;;;7.23;4.20;;;21.20;99.90;;;;;;5071487;28;20300;-82
2022/08/31 06:02:55;;;;;;;5.13;3.87;;;21.20;99.90;;;;;;5069762;28;20218;-83
2022/08/31 06:05:21;;;;;;;4.13;3.73;;;21.30;99.90;;;;;;5070508;28;20657;-81
2022/08/31 06:07:47;;;;;;;8.60;4.33;;;21.40;99.90;;;;;;5070355;28;20245;-83
2022/08/31 06:10:14;;;;;;;9.00;4.10;;;21.40;99.90;;;;;;5070608;28;20214;-81
2022/08/31 06:12:42;;;;;;;9.93;4.23;;;21.50;99.90;;;;;;5070623;28;20618;-82
2022/08/31 06:15:09;;;;;;;6.77;4.30;;;21.50;99.90;;;;;;5069730;28;20171;-82
2022/08/31 06:17:35;;;;;;;7.20;4.20;;;21.50;99.90;;;;;;5070466;28;20174;-81
2022/08/31 06:20:03;;;;;;;5.03;4.57;;;21.60;99.90;;;;;;5070383;28;20176;-82
2022/08/31 06:22:33;;;;;;;7.73;4.40;;;21.60;99.90;;;;;;5070484;28;20618;-82
2022/08/31 06:24:59;;;;;;;4.97;4.47;;;21.60;99.90;;;;;;5070493;28;20206;-82
2022/08/31 06:27:26;;;;;;;5.63;4.40;;;21.60;99.90;;;;;;5070421;28;20173;-80
2022/08/31 06:29:52;;;;;;;8.97;4.67;;;21.70;99.90;;;;;;5070385;28;20203;-82
2022/08/31 06:32:19;;;;;;;8.20;4.70;;;21.80;99.90;;;;;;5069773;28;20623;-81
2022/08/31 06:34:45;;;;;;;7.37;4.50;;;21.90;99.90;;;;;;5070300;28;20171;-81
2022/08/31 06:37:11;;;;;;;7.23;4.87;;;22.00;99.90;;;;;;5070542;28;20186;-81
2022/08/31 06:39:38;;;;;;;8.03;4.60;;;22.20;99.90;;;;;;5070299;28;20179;-81
2022/08/31 06:42:04;;;;;;;7.83;4.70;;;22.40;99.90;;;;;;5070167;28;20646;-81
2022/08/31 06:44:30;;;;;;;7.30;4.80;;;22.50;99.90;;;;;;5069887;28;20210;-82
2022/08/31 06:46:56;;;;;;;6.07;4.20;;;22.70;99.90;;;;;;5070200;28;20202;-82
2022/08/31 06:49:22;;;;;;;6.22;5.07;;;22.80;99.90;;;;;;5068626;28;20183;-83
2022/08/31 06:51:50;;;;;;;7.30;4.40;;;22.90;99.90;;;;;;5068487;28;20631;-81
2022/08/31 06:54:20;;;;;;;9.32;4.72;;;23.00;99.90;;;;;;5068473;28;20183;-82
2022/08/31 06:56:46;;;;;;;7.73;5.20;;;23.00;99.90;;;;;;5069937;28;20198;-81
2022/08/31 06:59:13;;;;;;;13.48;4.75;;;23.00;99.90;;;;;;5069820;28;20258;-83
2022/08/31 07:01:39;;;;;;;7.43;4.80;;;23.00;99.90;;;;;;5068595;28;20186;-82
2022/08/31 07:04:07;;;;;;;9.40;4.80;;;23.00;99.90;;;;;;5068491;28;20395;-83
2022/08/31 07:06:36;;;;;;;7.15;4.65;;;22.90;99.90;;;;;;5069864;28;20186;-81
2022/08/31 07:09:05;;;;;;;7.45;4.70;;;22.90;99.90;;;;;;5081344;28;20167;-82
2022/08/31 07:11:35;;;;;;;6.72;4.65;;;23.00;99.90;;;;;;5092130;28;20246;-82
2022/08/31 07:14:02;;;;;;;10.10;4.93;;;23.00;99.90;;;;;;5084850;28;20190;-82
2022/08/31 07:16:29;;;;;;;12.15;5.20;;;23.10;99.90;;;;;;5072340;28;20175;-83
2022/08/31 07:18:58;;;;;;;8.73;5.18;;;23.10;99.90;;;;;;5070280;28;20213;-81
2022/08/31 07:21:33;;;;;;;9.63;5.53;;;23.20;99.90;;;;;;5070002;28;20203;-81
2022/08/31 07:24:01;;;;;;;10.05;5.18;;;23.30;99.90;;;;;;5069681;28;20281;-81
2022/08/31 07:26:32;;;;;;;9.18;5.50;;;23.30;99.90;;;;;;5071356;28;20171;-81
2022/08/31 07:28:58;;;;;;;14.25;6.82;;;23.30;99.90;;;;;;5073574;28;20265;-81
2022/08/31 07:31:36;;;;;;;12.77;5.43;;;23.30;99.90;;;;;;5073604;28;20175;-81
2022/08/31 07:34:06;;;;;;;15.57;5.38;;;23.20;99.90;;;;;;5072214;28;20236;-83
2022/08/31 07:42:07;;;;;;;11.48;5.95;;;23.10;99.90;;;;;;5074275;28;20156;-81
2022/08/31 07:42:10;;;;;;;6.93;5.68;;;23.00;99.90;;;;;;5073613;28;20206;-81
2022/08/31 07:44:40;;;;;;;11.15;5.80;;;22.90;99.90;;;;;;5071963;28;20224;-80
2022/08/31 07:47:07;;;;;;;12.75;6.15;;;22.90;99.90;;;;;;5073398;28;20178;-82
2022/08/31 07:49:34;;;;;;;11.98;6.57;;;22.80;99.90;;;;;;5073412;28;20220;-81
2022/08/31 07:52:00;;;;;;;9.68;6.57;;;22.80;99.90;;;;;;5073398;28;20512;-82
2022/08/31 07:54:27;;;;;;;14.00;6.63;;;22.80;99.90;;;;;;5073195;28;20225;-81
2022/08/31 07:56:59;;;;;;;7.80;5.70;;;22.70;99.90;;;;;;5073316;28;20163;-81
2022/08/31 07:59:25;;;;;;;12.27;6.63;;;22.60;99.90;;;;;;5073058;28;20175;-81
2022/08/31 08:01:54;;;;;;;19.92;6.10;;;22.50;99.90;;;;;;5072863;28;20186;-81
2022/08/31 08:04:25;;;;;;;8.50;5.97;;;22.40;99.90;;;;;;5073230;28;20202;-81
2022/08/31 08:06:54;;;;;;;6.68;5.88;;;22.30;99.90;;;;;;5073285;28;20163;-82
2022/08/31 08:09:28;;;;;;;12.60;6.13;;;22.10;99.90;;;;;;5072880;28;20163;-81
2022/08/31 08:11:57;;;;;;;14.98;6.55;;;22.10;99.90;;;;;;5072915;28;20254;-81
2022/08/31 08:14:26;;;;;;;8.60;6.80;;;22.00;99.90;;;;;;5072907;28;20171;-81
2022/08/31 08:16:53;;;;;;;8.68;6.10;;;21.90;99.90;;;;;;5071549;28;20171;-81
2022/08/31 08:19:19;;;;;;;8.03;6.00;;;21.90;99.90;;;;;;5072828;28;20172;-81
2022/08/31 08:21:46;;;;;;;7.75;6.35;;;21.90;99.90;;;;;;5071386;28;20722;-81
2022/08/31 08:24:13;;;;;;;11.27;6.25;;;22.00;99.90;;;;;;5072698;28;20279;-82
2022/08/31 08:26:48;;;;;;;9.70;5.67;;;22.00;99.90;;;;;;5072612;28;20163;-81
2022/08/31 08:29:14;;;;;;;6.90;5.37;;;22.00;99.90;;;;;;5071150;28;20174;-82
2022/08/31 08:31:41;;;;;;;11.13;6.00;;;22.10;99.90;;;;;;5073077;28;20171;-81
2022/08/31 08:34:08;;;;;;;10.27;5.90;;;22.20;99.90;;;;;;5072629;28;20665;-82
2022/08/31 08:36:35;;;;;;;11.00;5.78;;;22.10;99.90;;;;;;5072563;28;20175;-81
2022/08/31 08:39:04;;;;;;;5.57;4.80;;;22.10;99.90;;;;;;5071858;28;20703;-81
2022/08/31 08:41:33;;;;;;;8.67;4.57;;;22.00;99.90;;;;;;5072557;28;20541;-81
2022/08/31 08:44:02;;;;;;;6.50;4.43;;;21.90;99.90;;;;;;5072370;28;20227;-81
2022/08/31 08:46:38;;;;;;;4.53;3.80;;;21.80;99.90;;;;;;5078509;28;20190;-82
2022/08/31 08:49:28;;;;;;;4.97;3.97;;;21.70;99.90;;;;;;5087170;28;20167;-81
2022/08/31 08:52:02;;;;;;;6.07;4.37;;;21.50;99.90;;;;;;5082500;28;20209;-81
2022/08/31 08:54:37;;;;;;;5.30;3.70;;;21.60;99.90;;;;;;5076588;28;20158;-82
2022/08/31 08:57:20;;;;;;;4.40;4.00;;;21.60;99.90;;;;;;5072078;28;20189;-81
2022/08/31 08:59:48;;;;;;;5.50;3.83;;;21.70;99.90;;;;;;5073128;28;20675;-82
2022/08/31 09:02:24;;;;;;;7.17;4.03;;;21.80;99.90;;;;;;5071319;28;20217;-83
2022/08/31 09:04:59;;;;;;;4.53;4.07;;;21.80;99.90;;;;;;5072660;28;20199;-83
2022/08/31 09:07:29;;;;;;;4.73;4.30;;;21.60;99.90;;;;;;5072590;28;20412;-83
2022/08/31 09:10:11;;;;;;;6.13;4.57;;;21.60;99.90;;;;;;5071910;28;20175;-81
2022/08/31 09:13:10;;;;;;;6.90;4.07;;;21.60;99.90;;;;;;5071780;28;20232;-81
2022/08/31 09:15:51;;;;;;;4.40;4.00;;;21.50;99.90;;;;;;5071896;28;20194;-82
2022/08/31 09:18:47;;;;;;;4.57;3.90;;;21.50;99.90;;;;;;5072467;28;20186;-82
2022/08/31 09:21:22;;;;;;;5.30;3.70;;;21.60;99.90;;;;;;5072427;28;20587;-82
2022/08/31 09:24:00;;;;;;;4.97;3.70;;;21.60;99.90;;;;;;5071536;28;20194;-81
2022/08/31 09:26:31;;;;;;;3.73;3.43;;;21.60;99.90;;;;;;5071892;28;20622;-82
2022/08/31 09:28:57;;;;;;;4.90;3.70;;;21.80;99.90;;;;;;5071363;28;20160;-83
2022/08/31 09:31:36;;;;;;;3.80;3.50;;;21.90;99.90;;;;;;5072137;28;20183;-83
2022/08/31 09:34:07;;;;;;;4.00;3.63;;;21.80;99.90;;;;;;5071565;28;20167;-83
2022/08/31 09:36:40;;;;;;;4.50;4.10;;;21.70;99.90;;;;;;5071746;28;20159;-83
2022/08/31 09:39:46;;;;;;;6.97;3.83;;;21.70;99.90;;;;;;5071429;28;20170;-81
2022/08/31 09:42:31;;;;;;;4.10;3.70;;;21.70;99.90;;;;;;5069027;28;20216;-82
2022/08/31 09:45:04;;;;;;;6.53;3.93;;;21.80;99.90;;;;;;5068750;28;20222;-81
2022/08/31 09:47:54;;;;;;;4.87;3.97;;;21.80;99.90;;;;;;5068600;28;20627;-83
2022/08/31 09:50:46;;;;;;;6.23;3.90;;;21.80;99.90;;;;;;5067179;28;20179;-82
2022/08/31 09:56:16;;;;;;;3.50;3.20;;;22.00;99.90;;;;;;5068818;28;20229;-83
2022/08/31 09:58:45;;;;;;;5.70;3.67;;;22.10;99.90;;;;;;5068188;28;20225;-82
2022/08/31 10:01:37;;;;;;;6.10;4.03;;;22.20;99.90;;;;;;5068361;28;20176;-82
2022/08/31 10:04:24;;;;;;;6.17;4.00;;;22.20;99.90;;;;;;5068187;28;20210;-82
2022/08/31 10:07:05;;;;;;;4.23;3.50;;;22.30;99.90;;;;;;5068045;28;20156;-82
2022/08/31 10:09:45;;;;;;;3.63;3.30;;;22.50;99.90;;;;;;5068156;28;20233;-81
2022/08/31 10:12:44;;;;;;;4.73;3.83;;;22.70;99.90;;;;;;5068171;28;20688;-84
2022/08/31 10:15:38;;;;;;;3.83;3.30;;;22.80;99.90;;;;;;5068052;28;20164;-82
2022/08/31 10:18:30;;;;;;;4.67;3.50;;;22.80;99.90;;;;;;5070646;28;20170;-81
2022/08/31 10:21:06;;;;;;;4.20;3.60;;;22.80;99.90;;;;;;5070705;28;20270;-83
2022/08/31 10:23:53;;;;;;;4.50;3.87;;;22.80;99.90;;;;;;5070866;28;20198;-82
2022/08/31 10:26:35;;;;;;;3.60;3.40;;;22.90;99.90;;;;;;5075681;28;20259;-81
2022/08/31 10:29:40;;;;;;;3.67;3.30;;;22.70;99.90;;;;;;5094667;28;20150;-81
2022/08/31 10:32:20;;;;;;;6.70;3.27;;;22.70;99.90;;;;;;5075113;28;20166;-83
2022/08/31 10:35:04;;;;;;;6.03;3.50;;;22.80;99.90;;;;;;5072046;28;20183;-84
2022/08/31 10:37:51;;;;;;;6.30;3.80;;;22.90;99.90;;;;;;5068939;28;20278;-83
2022/08/31 10:40:30;;;;;;;5.15;3.85;;;23.00;99.90;;;;;;5070349;28;20646;-84
2022/08/31 10:43:12;;;;;;;4.43;3.13;;;23.00;99.90;;;;;;5069150;28;20438;-84
2022/08/31 10:45:43;;;;;;;6.40;3.67;;;23.00;99.90;;;;;;5068944;28;20247;-83
2022/08/31 10:48:11;;;;;;;4.00;3.50;;;22.90;99.90;;;;;;5070248;28;20315;-83
2022/08/31 10:51:12;;;;;;;4.03;3.30;;;23.10;99.90;;;;;;5070109;28;20186;-84
2022/08/31 10:53:54;;;;;;;3.92;3.40;;;23.20;99.90;;;;;;5069600;28;20530;-83
2022/08/31 10:56:40;;;;;;;3.73;3.40;;;23.10;99.90;;;;;;5070080;28;20205;-83
2022/08/31 10:59:24;;;;;;;3.92;3.63;;;23.10;99.90;;;;;;5070098;28;20639;-84
2022/08/31 11:02:24;;;;;;;5.37;3.23;;;23.20;99.90;;;;;;5068365;28;20179;-84
2022/08/31 11:05:03;;;;;;;3.83;3.50;;;23.00;99.90;;;;;;5069452;28;20227;-83
2022/08/31 11:07:50;;;;;;;5.40;3.70;;;23.10;99.90;;;;;;5071046;28;20159;-85
2022/08/31 11:10:35;;;;;;;4.60;3.43;;;23.30;99.90;;;;;;5070908;28;20167;-84
2022/08/31 11:13:13;;;;;;;4.00;3.50;;;23.20;99.90;;;;;;5070877;28;20167;-83
2022/08/31 11:16:06;;;;;;;5.23;3.23;;;23.20;99.90;;;;;;5071068;28;20197;-84
2022/08/31 11:19:08;;;;;;;3.85;3.55;;;23.30;99.90;;;;;;5072835;28;20156;-84
2022/08/31 11:21:52;;;;;;;4.05;3.40;;;23.30;99.90;;;;;;5070118;28;20216;-84
2022/08/31 11:24:42;;;;;;;4.43;3.95;;;23.40;99.90;;;;;;5068460;28;20280;-83
2022/08/31 11:27:25;;;;;;;3.97;3.67;;;23.60;99.90;;;;;;5068205;28;20210;-81
2022/08/31 11:30:11;;;;;;;4.80;3.37;;;23.40;99.90;;;;;;5069569;28;20163;-83
2022/08/31 11:32:40;;;;;;;4.18;3.00;;;23.30;99.90;;;;;;5069844;28;20199;-84
2022/08/31 11:35:09;;;;;;;3.60;3.30;;;23.20;99.90;;;;;;5069636;28;20576;-83
2022/08/31 11:37:54;;;;;;;4.32;3.55;;;23.10;99.90;;;;;;5069588;28;20199;-84
2022/08/31 11:40:42;;;;;;;4.45;3.58;;;23.00;99.90;;;;;;5068149;28;20537;-84
2022/08/31 11:43:13;;;;;;;6.23;3.43;;;22.70;99.90;;;;;;5069256;28;20166;-84
2022/08/31 11:45:42;;;;;;;3.93;3.63;;;22.70;99.90;;;;;;5069621;28;20185;-83
2022/08/31 11:48:52;;;;;;;4.23;3.93;;;22.80;99.90;;;;;;5069553;28;20679;-81
2022/08/31 11:51:41;;;;;;;3.30;3.07;;;23.00;99.90;;;;;;5068506;28;20252;-82
2022/08/31 11:54:25;;;;;;;4.03;3.50;;;23.20;99.90;;;;;;5069043;28;20193;-81
2022/08/31 11:56:55;;;;;;;5.55;3.45;;;23.10;99.90;;;;;;5069511;28;20155;-83
2022/08/31 11:59:34;;;;;;;3.80;3.38;;;22.90;99.90;;;;;;5070090;28;20183;-82
2022/08/31 12:02:20;;;;;;;4.20;3.33;;;22.70;99.90;;;;;;5072892;28;20160;-81
2022/08/31 12:04:50;;;;;;;6.00;3.50;;;22.40;99.90;;;;;;5075213;28;20206;-81
2022/08/31 12:07:28;;;;;;;5.70;3.87;;;22.50;99.90;;;;;;5088024;28;20182;-82
2022/08/31 12:10:06;;;;;;;7.40;3.93;;;22.40;99.90;;;;;;5085648;28;20166;-84
2022/08/31 12:12:41;;;;;;;4.85;3.45;;;22.50;99.90;;;;;;5070848;28;20170;-84
2022/08/31 12:15:25;;;;;;;4.50;3.47;;;22.40;99.90;;;;;;5073361;28;20232;-82
2022/08/31 12:18:17;;;;;;;4.47;3.47;;;22.50;99.90;;;;;;5072690;28;20191;-83
2022/08/31 12:24:28;;;;;;;3.60;3.30;;;22.40;99.90;;;;;;5072754;28;20206;-82
2022/08/31 12:27:15;;;;;;;4.13;3.77;;;22.50;99.90;;;;;;5072798;28;20543;-83
2022/08/31 12:29:41;;;;;;;9.27;3.30;;;22.40;99.90;;;;;;5071375;28;20213;-82
2022/08/31 12:32:29;;;;;;;4.50;3.60;;;22.30;99.90;;;;;;5072441;28;20190;-83
2022/08/31 12:34:58;;;;;;;4.80;3.53;;;22.30;99.90;;;;;;5072724;28;20753;-84
2022/08/31 12:37:36;;;;;;;4.60;3.83;;;22.30;99.90;;;;;;5072919;28;20270;-83
2022/08/31 12:40:20;;;;;;;4.10;3.63;;;22.20;99.90;;;;;;5071009;28;20167;-83
2022/08/31 12:43:08;;;;;;;5.85;3.60;;;22.20;99.90;;;;;;5072606;28;20171;-82
2022/08/31 12:45:55;;;;;;;3.87;3.57;;;22.10;99.90;;;;;;5072488;28;20178;-82
2022/08/31 12:48:36;;;;;;;5.73;4.00;;;22.00;99.90;;;;;;5072522;28;20258;-82
2022/08/31 12:51:47;;;;;;;4.53;4.00;;;22.00;99.90;;;;;;5078487;28;20171;-85
2022/08/31 12:54:42;;;;;;;3.90;3.60;;;22.00;99.90;;;;;;5072129;28;20198;-83
2022/08/31 12:57:32;;;;;;;4.63;4.17;;;22.20;99.90;;;;;;5072952;28;20748;-83
2022/08/31 13:00:09;;;;;;;8.67;4.63;;;22.00;99.90;;;;;;5071431;28;20621;-83
2022/08/31 13:02:41;;;;;;;8.63;4.40;;;22.00;99.90;;;;;;5071588;28;20638;-82
2022/08/31 13:05:26;;;;;;;4.73;3.80;;;22.00;99.90;;;;;;5073153;28;20203;-85
2022/08/31 13:07:53;;;;;;;6.50;4.57;;;21.90;99.90;;;;;;5072440;28;20160;-81
2022/08/31 13:10:30;;;;;;;7.13;4.23;;;21.80;99.90;;;;;;5072788;28;20175;-82
2022/08/31 13:12:59;;;;;;;4.70;4.30;;;21.80;99.90;;;;;;5073825;28;20151;-83
2022/08/31 13:15:29;;;;;;;4.87;4.47;;;21.70;99.90;;;;;;5073006;28;20186;-82
2022/08/31 13:17:55;;;;;;;6.07;4.43;;;21.60;99.90;;;;;;5072719;28;20284;-83
2022/08/31 13:20:26;;;;;;;5.20;4.70;;;21.60;99.90;;;;;;5072059;28;20171;-83
2022/08/31 13:23:01;;;;;;;6.43;4.37;;;21.50;99.90;;;;;;5071751;28;20172;-84
2022/08/31 13:25:36;;;;;;;6.37;4.63;;;21.50;99.90;;;;;;5071566;28;20170;-85